Big Rapids, Michigan
Current Conditions -  °F | °C
As of 3:14 PM on Wednesday 28 Jan 2015 (Local Time) from KRQB Reporting Station
Overcast Overcast  
Wind Chill: 22°   Ceiling: 12000
Heat Index: 30°   Visibility: 10mi
Dew Point: 11°   Wind: 9mph
Humidity: 46%   Direction: 160°SSE
Pressure: 30.14"   Gusts: NA
Location:  43.7°N, 85.48°W
Report Text: KRQB 282014Z AUTO 16008KT 10SM OVC120 M01/M11 A3014 RMK AO2 T10111115
Loading
Personal Weather Stations






























Interactive Weather Map New forecast layout! Learn more

10-Day Weather Forecast

Advertisements
Track Severe Weather on mobile